createdAt,value
2022-09-10T00:00:08.607Z,23.23
2022-09-10T00:02:36.338Z,23.23
2022-09-10T00:05:02.920Z,23.19
2022-09-10T00:07:32.006Z,23.19
2022-09-10T00:09:58.593Z,23.16
2022-09-10T00:12:25.011Z,23.13
2022-09-10T00:15:04.908Z,23.18
2022-09-10T00:17:32.601Z,23.16
2022-09-10T00:20:01.945Z,23.21
2022-09-10T00:22:28.363Z,23.09
2022-09-10T00:24:55.439Z,23.06
2022-09-10T00:27:21.844Z,23.16
2022-09-10T00:30:08.179Z,23.13
2022-09-10T00:35:59.946Z,23.24
2022-09-10T00:38:31.564Z,22.99
2022-09-10T00:41:04.936Z,22.92
2022-09-10T00:43:48.906Z,22.99
2022-09-10T00:46:20.399Z,23.06
2022-09-10T00:48:46.862Z,22.99
2022-09-10T00:51:23.118Z,22.70
2022-09-10T00:53:50.827Z,22.67
2022-09-10T00:56:17.663Z,22.70
2022-09-10T00:58:45.788Z,22.64
2022-09-10T01:01:12.272Z,22.53
2022-09-10T01:03:38.934Z,22.55
2022-09-10T01:06:42.969Z,22.63
2022-09-10T01:09:29.124Z,22.41
2022-09-10T01:12:04.917Z,22.62
2022-09-10T01:14:37.697Z,22.60
2022-09-10T01:17:11.290Z,22.48
2022-09-10T01:19:51.793Z,22.43
2022-09-10T01:22:18.183Z,22.35
2022-09-10T01:24:45.016Z,22.38
2022-09-10T01:27:29.792Z,22.12
2022-09-10T01:30:14.774Z,22.12
2022-09-10T01:33:04.188Z,22.09
2022-09-10T01:35:31.174Z,21.79
2022-09-10T01:38:00.093Z,21.89
2022-09-10T01:40:30.070Z,21.78
2022-09-10T01:43:01.242Z,21.62
2022-09-10T01:45:28.780Z,21.71
2022-09-10T01:50:29.742Z,21.77
2022-09-10T01:52:56.536Z,21.82
2022-09-10T01:55:44.641Z,21.99
2022-09-10T01:58:21.895Z,22.00
2022-09-10T02:00:56.002Z,21.95
2022-09-10T02:03:24.693Z,21.53
2022-09-10T02:05:53.909Z,21.60
2022-09-10T02:08:26.176Z,21.85
2022-09-10T02:11:27.716Z,21.64
2022-09-10T02:14:14.240Z,21.38
2022-09-10T02:16:43.201Z,21.48
2022-09-10T02:19:10.426Z,21.35
2022-09-10T02:21:37.480Z,21.29
2022-09-10T02:24:05.897Z,21.30
2022-09-10T02:26:37.076Z,21.47
2022-09-10T02:29:22.192Z,21.53
2022-09-10T02:31:48.666Z,21.48
2022-09-10T02:34:16.075Z,21.11
2022-09-10T02:36:43.681Z,20.92
2022-09-10T02:39:10.104Z,20.73
2022-09-10T02:41:38.102Z,20.54
2022-09-10T02:44:16.399Z,20.66
2022-09-10T02:47:03.203Z,20.23
2022-09-10T02:49:34.667Z,20.16
2022-09-10T02:52:02.862Z,20.09
2022-09-10T02:54:29.484Z,20.19
2022-09-10T02:56:56.762Z,20.01
2022-09-10T02:59:23.723Z,19.79
2022-09-10T03:01:50.173Z,19.75
2022-09-10T03:04:16.861Z,19.70
2022-09-10T03:06:43.509Z,19.54
2022-09-10T03:09:10.053Z,19.63
2022-09-10T03:11:40.530Z,19.66
2022-09-10T03:14:09.090Z,19.45
2022-09-10T03:16:35.709Z,19.55
2022-09-10T03:19:17.913Z,19.65
2022-09-10T03:21:46.233Z,19.81
2022-09-10T03:24:15.224Z,19.75
2022-09-10T03:26:43.388Z,19.50
2022-09-10T03:29:10.128Z,19.51
2022-09-10T03:31:36.935Z,19.81
2022-09-10T03:37:49.356Z,19.84
2022-09-10T03:40:16.171Z,19.71
2022-09-10T03:42:42.723Z,19.56
2022-09-10T03:45:09.445Z,19.52
2022-09-10T03:47:39.489Z,19.46
2022-09-10T03:50:06.469Z,19.54
2022-09-10T03:52:32.909Z,19.76
2022-09-10T03:54:59.382Z,19.37
2022-09-10T03:57:26.227Z,19.44
2022-09-10T03:59:52.707Z,19.55
2022-09-10T04:02:19.159Z,19.72
2022-09-10T04:04:45.596Z,19.87
2022-09-10T04:07:30.674Z,19.75
2022-09-10T04:09:57.084Z,19.89
2022-09-10T04:12:23.985Z,19.72
2022-09-10T04:14:50.408Z,19.91
2022-09-10T04:17:18.059Z,19.82
2022-09-10T04:19:44.707Z,19.72
2022-09-10T04:22:11.131Z,19.64
2022-09-10T04:25:16.357Z,20.10
2022-09-10T04:28:02.571Z,20.02
2022-09-10T04:30:29.040Z,20.07
2022-09-10T04:32:55.482Z,20.12
2022-09-10T04:35:21.892Z,20.13
2022-09-10T04:37:48.324Z,20.30
2022-09-10T04:40:14.828Z,20.24
2022-09-10T04:42:41.295Z,20.37
2022-09-10T04:45:07.979Z,20.50
2022-09-10T04:47:34.691Z,20.51
2022-09-10T04:50:01.234Z,20.49
2022-09-10T04:52:27.926Z,19.93
2022-09-10T04:54:54.338Z,20.28
2022-09-10T04:57:40.616Z,20.31
2022-09-10T05:00:50.931Z,20.44
2022-09-10T05:03:23.637Z,20.39
2022-09-10T05:05:51.046Z,20.15
2022-09-10T05:08:17.548Z,19.91
2022-09-10T05:10:45.329Z,20.02
2022-09-10T05:13:11.721Z,20.07
2022-09-10T05:15:40.335Z,20.30
2022-09-10T05:18:12.021Z,20.46
2022-09-10T05:20:38.410Z,20.65
2022-09-10T05:23:04.809Z,20.66
2022-09-10T05:25:31.246Z,20.82
2022-09-10T05:27:57.681Z,20.76
2022-09-10T05:30:24.752Z,20.56
2022-09-10T05:36:33.244Z,20.67
2022-09-10T05:39:00.384Z,20.33
2022-09-10T05:41:28.172Z,20.65
2022-09-10T05:43:54.858Z,20.64
2022-09-10T05:46:22.313Z,20.89
2022-09-10T05:48:49.110Z,20.74
2022-09-10T05:51:34.333Z,21.09
2022-09-10T05:54:00.761Z,21.04
2022-09-10T05:56:27.197Z,20.98
2022-09-10T05:58:53.744Z,21.13
2022-09-10T06:01:20.212Z,21.13
2022-09-10T06:03:46.649Z,21.29
2022-09-10T06:07:03.168Z,21.39
2022-09-10T06:09:53.671Z,21.15
2022-09-10T06:12:20.179Z,21.13
2022-09-10T06:14:46.601Z,20.43
2022-09-10T06:17:13.044Z,20.72
2022-09-10T06:19:39.981Z,20.65
2022-09-10T06:22:06.414Z,20.66
2022-09-10T06:24:32.844Z,20.56
2022-09-10T06:27:18.076Z,20.81
2022-09-10T06:29:44.524Z,20.94
2022-09-10T06:32:10.956Z,20.76
2022-09-10T06:34:37.351Z,20.73
2022-09-10T06:37:04.230Z,21.06
2022-09-10T06:39:30.719Z,20.99
2022-09-10T06:42:22.215Z,20.69
2022-09-10T06:50:50.095Z,20.63
2022-09-10T06:53:16.773Z,20.30
2022-09-10T06:55:43.214Z,20.28
2022-09-10T06:58:09.679Z,20.51
2022-09-10T07:00:39.283Z,20.17
2022-09-10T07:03:05.694Z,20.14
2022-09-10T07:05:35.505Z,20.25
2022-09-10T07:08:02.101Z,20.33
2022-09-10T07:10:31.294Z,19.88
2022-09-10T07:12:57.896Z,19.99
2022-09-10T07:15:24.288Z,19.97
2022-09-10T07:18:00.366Z,20.11
2022-09-10T07:20:28.728Z,19.94
2022-09-10T07:22:56.204Z,19.92
2022-09-10T07:25:23.671Z,19.43
2022-09-10T07:27:50.838Z,19.47
2022-09-10T07:30:17.390Z,19.41
2022-09-10T07:36:21.550Z,19.46
2022-09-10T07:38:51.307Z,19.66
2022-09-10T07:41:18.673Z,19.71
2022-09-10T07:43:45.162Z,19.71
2022-09-10T07:46:12.961Z,19.60
2022-09-10T07:48:40.346Z,19.36
2022-09-10T07:51:08.268Z,19.51
2022-09-10T07:53:34.824Z,19.41
2022-09-10T07:56:02.102Z,19.74
2022-09-10T07:58:29.539Z,19.88
2022-09-10T08:00:56.021Z,20.01
2022-09-10T08:03:22.543Z,19.86
2022-09-10T08:05:49.200Z,19.86
2022-09-10T08:08:16.174Z,19.93
2022-09-10T08:10:42.777Z,19.87
2022-09-10T08:13:12.319Z,20.05
2022-09-10T08:15:43.712Z,19.99
2022-09-10T08:18:11.166Z,19.75
2022-09-10T08:20:40.090Z,19.88
2022-09-10T08:23:07.206Z,19.83
2022-09-10T08:25:33.732Z,20.29
2022-09-10T08:28:00.912Z,20.52
2022-09-10T08:30:27.952Z,20.53
2022-09-10T08:32:54.776Z,20.72
2022-09-10T08:35:21.172Z,21.06
2022-09-10T08:37:47.881Z,21.04
2022-09-10T08:40:14.898Z,21.02
2022-09-10T08:42:46.090Z,21.29
2022-09-10T08:45:24.129Z,21.37
2022-09-10T08:47:53.589Z,21.56
2022-09-10T08:50:25.921Z,21.78
2022-09-10T08:52:55.985Z,21.59
2022-09-10T08:55:25.752Z,21.53
2022-09-10T08:57:55.630Z,21.34
2022-09-10T09:00:23.886Z,21.47
2022-09-10T09:02:56.736Z,21.61
2022-09-10T09:05:24.130Z,21.71
2022-09-10T09:07:51.200Z,21.76
2022-09-10T09:10:32.931Z,21.75
2022-09-10T09:13:11.599Z,21.34
2022-09-10T09:16:04.354Z,21.63
2022-09-10T09:18:30.860Z,21.36
2022-09-10T09:21:01.802Z,21.55
2022-09-10T09:23:35.366Z,21.58
2022-09-10T09:26:04.377Z,21.63
2022-09-10T09:28:33.949Z,21.64
2022-09-10T09:31:09.343Z,21.64
2022-09-10T09:33:36.561Z,21.77
2022-09-10T09:36:04.897Z,21.88
2022-09-10T09:38:31.320Z,22.01
2022-09-10T09:41:01.840Z,22.06
2022-09-10T09:43:40.864Z,22.32
2022-09-10T09:46:16.526Z,22.31
2022-09-10T09:48:43.423Z,22.40
2022-09-10T09:51:13.836Z,22.32
2022-09-10T09:53:42.346Z,22.38
2022-09-10T09:56:15.359Z,22.43
2022-09-10T09:58:47.079Z,22.40
2022-09-10T10:01:15.509Z,22.55
2022-09-10T10:03:52.207Z,22.74
2022-09-10T10:06:38.869Z,22.81
2022-09-10T10:09:06.667Z,23.01
2022-09-10T10:11:41.997Z,23.07
2022-09-10T10:14:39.229Z,23.31
2022-09-10T10:17:26.026Z,23.45
2022-09-10T10:20:12.937Z,23.48
2022-09-10T10:22:40.629Z,23.55
2022-09-10T10:25:27.052Z,23.72
2022-09-10T10:27:54.442Z,23.59
2022-09-10T10:30:22.823Z,23.49
2022-09-10T10:33:02.961Z,23.76
2022-09-10T10:35:46.484Z,23.77
2022-09-10T10:38:18.872Z,23.95
2022-09-10T10:41:02.256Z,23.88
2022-09-10T10:43:47.778Z,24.00
2022-09-10T10:46:21.540Z,24.14
2022-09-10T10:49:06.659Z,24.12
2022-09-10T10:51:36.064Z,24.20
2022-09-10T10:54:20.335Z,24.07
2022-09-10T10:57:05.791Z,24.12
2022-09-10T10:59:39.015Z,24.37
2022-09-10T11:02:14.094Z,24.45
2022-09-10T11:04:51.105Z,24.46
2022-09-10T11:07:20.586Z,24.38
2022-09-10T11:09:46.962Z,24.56
2022-09-10T11:12:20.465Z,24.49
2022-09-10T11:14:59.443Z,24.47
2022-09-10T11:17:28.708Z,24.52
2022-09-10T11:20:28.938Z,24.34
2022-09-10T11:23:05.482Z,24.55
2022-09-10T11:25:37.065Z,24.94
2022-09-10T11:28:15.687Z,24.74
2022-09-10T11:30:45.860Z,24.88
2022-09-10T11:33:18.653Z,24.86
2022-09-10T11:35:53.380Z,24.72
2022-09-10T11:38:28.099Z,24.86
2022-09-10T11:41:00.737Z,24.97
2022-09-10T11:43:33.343Z,24.85
2022-09-10T11:46:08.182Z,25.23
2022-09-10T11:48:41.888Z,25.40
2022-09-10T11:51:13.517Z,25.27
2022-09-10T11:53:41.148Z,25.51
2022-09-10T11:56:27.253Z,25.36
2022-09-10T11:58:59.479Z,25.91
2022-09-10T12:01:44.761Z,25.93
2022-09-10T12:04:47.662Z,25.49
2022-09-10T12:07:17.467Z,25.76
2022-09-10T12:09:50.109Z,25.62
2022-09-10T12:12:22.520Z,25.86
2022-09-10T12:14:49.020Z,26.13
2022-09-10T12:17:15.439Z,25.92
2022-09-10T12:19:47.983Z,25.68
2022-09-10T12:22:20.514Z,26.07
2022-09-10T12:25:07.354Z,26.09
2022-09-10T12:27:57.911Z,25.94
2022-09-10T12:30:36.304Z,25.83
2022-09-10T12:33:24.721Z,25.92
2022-09-10T12:35:51.708Z,25.88
2022-09-10T12:38:41.262Z,25.95
2022-09-10T12:41:14.788Z,26.17
2022-09-10T12:43:41.531Z,26.10
2022-09-10T12:46:12.668Z,26.22
2022-09-10T12:48:44.958Z,26.00
2022-09-10T12:51:18.000Z,25.75
2022-09-10T12:53:50.665Z,25.92
2022-09-10T12:56:17.090Z,25.94
2022-09-10T12:59:10.530Z,25.66
2022-09-10T13:01:46.316Z,25.74
2022-09-10T13:04:26.038Z,25.48
2022-09-10T13:06:59.366Z,25.55
2022-09-10T13:09:28.436Z,25.76
2022-09-10T13:11:59.508Z,25.90
2022-09-10T13:14:38.196Z,25.81
2022-09-10T13:17:04.704Z,25.67
2022-09-10T13:19:31.117Z,25.86
2022-09-10T13:21:58.028Z,25.68
2022-09-10T13:24:33.874Z,25.60
2022-09-10T13:27:03.273Z,25.71
2022-09-10T13:29:32.540Z,25.51
2022-09-10T13:32:14.764Z,25.62
2022-09-10T13:35:01.489Z,25.59
2022-09-10T13:37:40.131Z,25.51
2022-09-10T13:40:19.702Z,25.60
2022-09-10T13:42:46.086Z,25.71
2022-09-10T13:45:21.851Z,25.92
2022-09-10T13:47:51.327Z,26.02
2022-09-10T13:50:17.744Z,25.88
2022-09-10T13:52:45.719Z,25.77
2022-09-10T13:55:18.535Z,25.79
2022-09-10T13:57:47.603Z,25.75
2022-09-10T14:00:14.466Z,25.86
2022-09-10T14:02:42.010Z,26.06
2022-09-10T14:05:23.552Z,25.89
2022-09-10T14:07:51.136Z,25.94
2022-09-10T14:10:18.645Z,26.01
2022-09-10T14:12:45.865Z,25.70
2022-09-10T14:15:17.094Z,25.89
2022-09-10T14:17:50.732Z,25.71
2022-09-10T14:20:23.562Z,25.50
2022-09-10T14:22:58.849Z,25.80
2022-09-10T14:25:36.177Z,25.64
2022-09-10T14:28:24.244Z,25.54
2022-09-10T14:30:51.765Z,25.58
2022-09-10T14:33:21.319Z,25.65
2022-09-10T14:35:51.537Z,25.61
2022-09-10T14:38:21.036Z,25.43
2022-09-10T14:40:48.190Z,25.78
2022-09-10T14:43:27.441Z,25.74
2022-09-10T14:45:55.434Z,25.69
2022-09-10T14:48:32.871Z,25.70
2022-09-10T14:51:10.657Z,25.94
2022-09-10T14:53:37.499Z,25.81
2022-09-10T14:56:05.211Z,25.39
2022-09-10T14:58:31.786Z,25.53
2022-09-10T15:00:58.687Z,25.52
2022-09-10T15:03:25.201Z,25.68
2022-09-10T15:05:51.615Z,25.67
2022-09-10T15:08:18.031Z,25.73
2022-09-10T15:10:44.454Z,25.77
2022-09-10T15:13:14.801Z,25.83
2022-09-10T15:15:41.252Z,25.53
2022-09-10T15:18:17.326Z,25.59
2022-09-10T15:20:43.741Z,25.54
2022-09-10T15:23:11.571Z,25.70
2022-09-10T15:25:44.278Z,25.67
2022-09-10T15:28:10.684Z,25.57
2022-09-10T15:30:37.166Z,25.49
2022-09-10T15:33:04.622Z,25.65
2022-09-10T15:35:31.162Z,25.58
2022-09-10T15:37:58.021Z,25.79
2022-09-10T15:40:24.640Z,25.70
2022-09-10T15:42:54.177Z,25.61
2022-09-10T15:45:21.036Z,25.54
2022-09-10T15:47:47.461Z,25.25
2022-09-10T15:50:16.264Z,25.45
2022-09-10T15:52:44.944Z,25.60
2022-09-10T15:55:12.351Z,25.64
2022-09-10T15:57:40.352Z,25.62
2022-09-10T16:00:07.581Z,25.27
2022-09-10T16:02:34.137Z,25.06
2022-09-10T16:05:03.910Z,25.03
2022-09-10T16:07:30.484Z,25.03
2022-09-10T16:09:58.794Z,25.20
2022-09-10T16:12:27.911Z,24.93
2022-09-10T16:14:54.655Z,25.11
2022-09-10T16:17:21.089Z,25.11
2022-09-10T16:19:47.511Z,24.87
2022-09-10T16:22:16.447Z,25.11
2022-09-10T16:24:46.450Z,25.17
2022-09-10T16:27:12.940Z,24.98
2022-09-10T16:29:46.104Z,25.05
2022-09-10T16:32:12.962Z,25.03
2022-09-10T16:34:39.738Z,25.02
2022-09-10T16:37:06.242Z,24.86
2022-09-10T16:39:32.801Z,24.98
2022-09-10T16:41:59.392Z,24.92
2022-09-10T16:47:00.624Z,24.88
2022-09-10T16:49:27.487Z,24.79
2022-09-10T16:51:54.384Z,24.78
2022-09-10T16:54:46.279Z,24.87
2022-09-10T16:57:12.697Z,24.89
2022-09-10T16:59:39.094Z,24.88
2022-09-10T17:02:07.513Z,24.93
2022-09-10T17:04:34.642Z,24.84
2022-09-10T17:07:01.145Z,24.79
2022-09-10T17:09:45.703Z,24.77
2022-09-10T17:15:30.280Z,24.58
2022-09-10T17:17:57.224Z,24.55
2022-09-10T17:20:23.626Z,24.37
2022-09-10T17:22:50.085Z,24.39
2022-09-10T17:25:16.819Z,24.23
2022-09-10T17:27:43.286Z,24.13
2022-09-10T17:30:09.929Z,23.73
2022-09-10T17:32:36.409Z,23.71
2022-09-10T17:35:02.853Z,23.71
2022-09-10T17:37:29.339Z,23.40
2022-09-10T17:39:55.919Z,23.53
2022-09-10T17:42:22.398Z,23.74
2022-09-10T17:44:49.435Z,23.50
2022-09-10T17:47:15.926Z,23.61
2022-09-10T17:49:43.532Z,23.50
2022-09-10T17:52:10.185Z,23.61
2022-09-10T17:54:36.672Z,23.73
2022-09-10T17:57:03.326Z,23.81
2022-09-10T17:59:48.173Z,23.80
2022-09-10T18:02:15.559Z,23.74
2022-09-10T18:04:42.301Z,23.81
2022-09-10T18:07:11.837Z,23.65
2022-09-10T18:09:38.331Z,23.56
2022-09-10T18:12:04.862Z,23.49
2022-09-10T18:20:49.812Z,23.17
2022-09-10T18:23:16.227Z,23.17
2022-09-10T18:25:47.909Z,23.13
2022-09-10T18:28:16.193Z,23.14
2022-09-10T18:30:42.692Z,23.09
2022-09-10T18:33:21.140Z,23.10
2022-09-10T18:35:47.564Z,23.07
2022-09-10T18:38:13.972Z,23.06
2022-09-10T18:40:42.497Z,22.95
2022-09-10T18:43:09.064Z,22.91
2022-09-10T18:45:35.512Z,22.85
2022-09-10T18:48:02.036Z,22.75
2022-09-10T18:51:10.401Z,22.66
2022-09-10T18:53:53.883Z,22.65
2022-09-10T18:56:23.328Z,22.49
2022-09-10T18:58:55.719Z,22.56
2022-09-10T19:01:23.119Z,22.33
2022-09-10T19:03:50.019Z,22.29
2022-09-10T19:06:17.965Z,22.26
2022-09-10T19:08:48.952Z,22.36
2022-09-10T19:11:19.094Z,22.19
2022-09-10T19:13:52.703Z,22.31
2022-09-10T19:16:22.735Z,22.38
2022-09-10T19:18:52.840Z,22.44
2022-09-10T19:21:20.286Z,22.41
2022-09-10T19:23:47.606Z,22.27
2022-09-10T19:26:14.169Z,22.26
2022-09-10T19:28:40.876Z,22.25
2022-09-10T19:31:08.190Z,22.27
2022-09-10T19:33:36.324Z,22.18
2022-09-10T19:36:14.336Z,21.90
2022-09-10T19:38:41.223Z,22.04
2022-09-10T19:41:14.306Z,22.07
2022-09-10T19:43:41.226Z,22.18
2022-09-10T19:46:10.362Z,22.24
2022-09-10T19:48:37.338Z,22.26
2022-09-10T19:51:05.198Z,22.26
2022-09-10T19:53:33.282Z,22.18
2022-09-10T19:56:03.605Z,22.17
2022-09-10T19:58:30.143Z,22.17
2022-09-10T20:00:56.587Z,22.10
2022-09-10T20:03:23.024Z,22.11
2022-09-10T20:05:49.549Z,21.81
2022-09-10T20:08:15.982Z,22.05
2022-09-10T20:10:49.426Z,21.98
2022-09-10T20:13:17.786Z,22.08
2022-09-10T20:15:45.590Z,22.12
2022-09-10T20:18:12.338Z,22.10
2022-09-10T20:20:38.826Z,22.13
2022-09-10T20:23:05.276Z,22.12
2022-09-10T20:25:31.975Z,21.98
2022-09-10T20:28:01.312Z,21.72
2022-09-10T20:30:27.753Z,21.81
2022-09-10T20:32:56.647Z,21.77
2022-09-10T20:35:23.069Z,21.83
2022-09-10T20:37:51.745Z,21.81
2022-09-10T20:40:18.295Z,21.82
2022-09-10T20:42:44.763Z,21.80
2022-09-10T20:45:11.401Z,21.74
2022-09-10T20:50:13.208Z,21.68
2022-09-10T20:52:40.290Z,21.66
2022-09-10T20:55:07.078Z,21.59
2022-09-10T20:57:33.494Z,21.58
2022-09-10T21:00:00.182Z,21.49
2022-09-10T21:02:26.873Z,21.48
2022-09-10T21:04:53.517Z,21.28
2022-09-10T21:07:20.458Z,21.24
2022-09-10T21:09:46.876Z,20.99
2022-09-10T21:12:13.479Z,20.91
2022-09-10T21:14:39.937Z,20.97
2022-09-10T21:17:06.388Z,20.95
2022-09-10T21:19:33.671Z,20.93
2022-09-10T21:22:00.201Z,20.72
2022-09-10T21:24:45.201Z,20.89
2022-09-10T21:27:11.661Z,20.94
2022-09-10T21:29:38.366Z,20.79
2022-09-10T21:32:04.839Z,20.88
2022-09-10T21:34:32.414Z,20.98
2022-09-10T21:36:58.804Z,20.91
2022-09-10T21:42:50.197Z,20.97
2022-09-10T21:48:01.840Z,20.84
2022-09-10T21:50:28.628Z,20.73
2022-09-10T21:52:55.019Z,20.63
2022-09-10T21:55:21.538Z,20.77
2022-09-10T21:57:47.916Z,20.64
2022-09-10T22:00:16.112Z,20.72
2022-09-10T22:02:42.574Z,20.79
2022-09-10T22:05:09.114Z,20.70
2022-09-10T22:07:35.535Z,20.84
2022-09-10T22:10:02.052Z,20.87
2022-09-10T22:12:28.938Z,20.80
2022-09-10T22:15:10.479Z,20.85
2022-09-10T22:17:36.899Z,20.90
2022-09-10T22:20:03.937Z,20.95
2022-09-10T22:22:30.538Z,20.91
2022-09-10T22:24:56.943Z,20.89
2022-09-10T22:27:23.360Z,20.83
2022-09-10T22:33:29.946Z,20.86
2022-09-10T22:35:56.361Z,20.86
2022-09-10T22:38:22.811Z,20.85
2022-09-10T22:40:49.304Z,20.84
2022-09-10T22:43:15.716Z,20.85
2022-09-10T22:45:42.106Z,20.84
2022-09-10T22:48:33.226Z,20.76
2022-09-10T22:50:59.829Z,20.68
2022-09-10T22:53:26.260Z,20.60
2022-09-10T22:55:53.837Z,20.60
2022-09-10T22:58:20.331Z,20.45
2022-09-10T23:00:46.798Z,20.46
2022-09-10T23:03:13.244Z,20.48
2022-09-10T23:09:12.999Z,20.32
2022-09-10T23:11:39.907Z,20.29
2022-09-10T23:14:07.736Z,20.04
2022-09-10T23:16:35.472Z,20.19
2022-09-10T23:19:04.023Z,20.19
2022-09-10T23:21:31.470Z,20.13
2022-09-10T23:24:17.539Z,20.08
2022-09-10T23:26:44.130Z,19.90
2022-09-10T23:29:10.578Z,20.01
2022-09-10T23:31:37.857Z,20.00
2022-09-10T23:34:05.721Z,19.95
2022-09-10T23:36:42.612Z,19.95
2022-09-10T23:42:52.606Z,19.83
2022-09-10T23:45:19.022Z,19.81
2022-09-10T23:47:46.737Z,19.92
2022-09-10T23:50:13.420Z,19.96
2022-09-10T23:52:39.850Z,19.98
2022-09-10T23:55:06.501Z,19.89
2022-09-10T23:57:32.928Z,19.89
